This is the latest recevied weather packets stored in our database for station/object VE2JJ-13. If no packets are shown the sender has not sent any weather packets the latest 10 day(s).
| Time | Temp. | Humidity | Pressure | Rain* | Wind** | Luminosity | Snow |
|---|---|---|---|---|---|---|---|
| 1777689045 | 5.56° C | 74% | 1004.3 hPa | 0 mm | - | - | - |
| 1777688748 | 5.56° C | 74% | 1004.4 hPa | 0 mm | - | - | - |
| 1777688447 | 5.56° C | 74% | 1004.4 hPa | 0 mm | - | - | - |
| 1777688145 | 5.56° C | 74% | 1004.4 hPa | 0 mm | - | - | - |
| 1777674375 | 12.22° C | 40% | 1003.1 hPa | 0 mm | - | - | - |
| 1777673754 | 12.22° C | 40% | 1003.1 hPa | 0 mm | - | - | - |
| 1777673418 | 12.22° C | 40% | 1003.1 hPa | 0 mm | - | - | - |
| 1777671829 | 12.78° C | 38% | 1003 hPa | 0 mm | - | - | - |
| 1777671496 | 13.33° C | 38% | 1002.9 hPa | 0 mm | - | - | - |
| 1777671196 | 12.78° C | 42% | 1002.9 hPa | 0 mm | - | - | - |
| 1777670566 | 13.33° C | 40% | 1002.8 hPa | 0 mm | - | - | - |
| 1777670235 | 13.33° C | 42% | 1002.8 hPa | 0 mm | - | - | - |
| 1777669605 | 13.89° C | 35% | 1003 hPa | 0 mm | - | - | - |
| 1777668945 | 13.33° C | 38% | 1003 hPa | 0 mm | - | - | - |
| 1777668316 | 12.78° C | 39% | 1003 hPa | 0 mm | - | - | - |
| 1777664895 | 12.78° C | 41% | 1003 hPa | 0 mm | - | - | - |
| 1777664594 | 13.89° C | 40% | 1003 hPa | 0 mm | - | - | - |
| 1777664264 | 14.44° C | 39% | 1003.1 hPa | 0 mm | - | - | - |
| 1777663636 | 12.78° C | 42% | 1003.3 hPa | 0 mm | - | - | - |
| 1777663306 | 12.78° C | 43% | 1003.3 hPa | 0 mm | - | - | - |
| 1777662975 | 13.33° C | 41% | 1003.4 hPa | 0 mm | - | - | - |
| 1777662344 | 13.89° C | 40% | 1003.4 hPa | 0 mm | - | - | - |
| 1777661118 | 13.33° C | 42% | 1003.6 hPa | 0 mm | - | - | - |
| 1777660784 | 13.33° C | 42% | 1003.6 hPa | 0 mm | - | - | - |
| 1777659825 | 12.22° C | 43% | 1003.7 hPa | 0 mm | - | - | - |
* Rain latest hour (hover to see other rain measurements)
** Current wind speed in m/s (hover to see current wind gust speed)